sensor_id;sensor_type;location;lat;lon;timestamp;pressure;altitude;pressure_sealevel;temperature;humidity
13124;BME280;6627;50.920;12.050;2022-09-09T00:00:51;98157.16;;;24.65;49.46
13124;BME280;6627;50.920;12.050;2022-09-09T00:03:26;98065.41;;;23.59;50.63
13124;BME280;6627;50.920;12.050;2022-09-09T00:06:04;98198.34;;;25.04;49.15
13124;BME280;6627;50.920;12.050;2022-09-09T00:08:45;98123.09;;;24.23;50.15
13124;BME280;6627;50.920;12.050;2022-09-09T00:11:28;98078.06;;;24.19;49.65
13124;BME280;6627;50.920;12.050;2022-09-09T00:14:03;98170.38;;;24.91;48.98
13124;BME280;6627;50.920;12.050;2022-09-09T00:16:43;98151.31;;;24.56;49.86
13124;BME280;6627;50.920;12.050;2022-09-09T00:19:23;98123.00;;;24.37;49.93
13124;BME280;6627;50.920;12.050;2022-09-09T00:22:12;98130.72;;;24.57;49.74
13124;BME280;6627;50.920;12.050;2022-09-09T00:24:46;98074.56;;;24.08;49.84
13124;BME280;6627;50.920;12.050;2022-09-09T00:27:27;98111.88;;;24.45;49.73
13124;BME280;6627;50.920;12.050;2022-09-09T00:30:14;98137.28;;;24.77;49.29
13124;BME280;6627;50.920;12.050;2022-09-09T00:32:46;98087.56;;;24.14;49.75
13124;BME280;6627;50.920;12.050;2022-09-09T00:35:21;98072.53;;;24.19;49.38
13124;BME280;6627;50.920;12.050;2022-09-09T00:37:55;98102.81;;;24.40;49.22
13124;BME280;6627;50.920;12.050;2022-09-09T00:40:34;98049.09;;;23.82;49.89
13124;BME280;6627;50.920;12.050;2022-09-09T00:43:21;98098.44;;;24.43;49.53
13124;BME280;6627;50.920;12.050;2022-09-09T00:46:18;98056.22;;;23.76;49.99
13124;BME280;6627;50.920;12.050;2022-09-09T00:49:04;98051.75;;;23.97;49.55
13124;BME280;6627;50.920;12.050;2022-09-09T00:51:50;98108.84;;;24.21;50.03
13124;BME280;6627;50.920;12.050;2022-09-09T00:54:36;98047.66;;;23.60;50.31
13124;BME280;6627;50.920;12.050;2022-09-09T00:57:26;98066.47;;;23.86;50.25
13124;BME280;6627;50.920;12.050;2022-09-09T01:00:17;98088.31;;;24.22;49.76
13124;BME280;6627;50.920;12.050;2022-09-09T01:02:58;98043.69;;;23.61;50.28
13124;BME280;6627;50.920;12.050;2022-09-09T01:05:39;98100.63;;;24.14;50.24
13124;BME280;6627;50.920;12.050;2022-09-09T01:08:33;98071.16;;;23.89;50.09
13124;BME280;6627;50.920;12.050;2022-09-09T01:11:10;98084.50;;;24.02;50.00
13124;BME280;6627;50.920;12.050;2022-09-09T01:13:49;98045.09;;;23.17;51.55
13124;BME280;6627;50.920;12.050;2022-09-09T01:16:20;98108.22;;;23.99;50.56
13124;BME280;6627;50.920;12.050;2022-09-09T01:18:53;98058.75;;;23.46;50.97
13124;BME280;6627;50.920;12.050;2022-09-09T01:21:35;97994.25;;;23.07;50.66
13124;BME280;6627;50.920;12.050;2022-09-09T01:24:26;98020.38;;;22.81;52.20
13124;BME280;6627;50.920;12.050;2022-09-09T01:26:59;98044.00;;;22.97;52.47
13124;BME280;6627;50.920;12.050;2022-09-09T01:29:29;98058.59;;;22.83;53.36
13124;BME280;6627;50.920;12.050;2022-09-09T01:32:42;98158.88;;;23.92;51.71
13124;BME280;6627;50.920;12.050;2022-09-09T01:35:18;98236.75;;;24.57;50.12
13124;BME280;6627;50.920;12.050;2022-09-09T01:37:51;98060.56;;;23.04;51.57
13124;BME280;6627;50.920;12.050;2022-09-09T01:40:20;98050.63;;;23.17;51.86
13124;BME280;6627;50.920;12.050;2022-09-09T01:42:50;98055.41;;;23.06;52.15
13124;BME280;6627;50.920;12.050;2022-09-09T01:45:21;98033.44;;;22.49;53.28
13124;BME280;6627;50.920;12.050;2022-09-09T01:47:52;98162.66;;;24.16;51.18
13124;BME280;6627;50.920;12.050;2022-09-09T01:50:20;98152.03;;;24.08;51.15
13124;BME280;6627;50.920;12.050;2022-09-09T01:52:58;98046.75;;;22.97;52.08
13124;BME280;6627;50.920;12.050;2022-09-09T01:55:32;98081.03;;;23.10;52.51
13124;BME280;6627;50.920;12.050;2022-09-09T01:58:20;98057.44;;;22.95;52.91
13124;BME280;6627;50.920;12.050;2022-09-09T02:01:06;98064.13;;;22.86;53.10
13124;BME280;6627;50.920;12.050;2022-09-09T02:03:36;98075.50;;;23.13;52.35
13124;BME280;6627;50.920;12.050;2022-09-09T02:06:17;98085.41;;;23.04;52.85
13124;BME280;6627;50.920;12.050;2022-09-09T02:08:49;98063.03;;;22.59;53.50
13124;BME280;6627;50.920;12.050;2022-09-09T02:11:20;98074.81;;;22.70;53.86
13124;BME280;6627;50.920;12.050;2022-09-09T02:13:55;98036.22;;;22.52;53.07
13124;BME280;6627;50.920;12.050;2022-09-09T02:16:28;98105.53;;;23.08;52.07
13124;BME280;6627;50.920;12.050;2022-09-09T02:19:03;98074.06;;;22.59;52.88
13124;BME280;6627;50.920;12.050;2022-09-09T02:21:34;98118.19;;;22.80;53.32
13124;BME280;6627;50.920;12.050;2022-09-09T02:24:06;98105.59;;;22.51;54.07
13124;BME280;6627;50.920;12.050;2022-09-09T02:26:40;98088.28;;;22.32;54.71
13124;BME280;6627;50.920;12.050;2022-09-09T02:29:14;98081.19;;;22.28;54.50
13124;BME280;6627;50.920;12.050;2022-09-09T02:31:47;98108.78;;;22.24;55.39
13124;BME280;6627;50.920;12.050;2022-09-09T02:34:20;98244.19;;;23.94;52.35
13124;BME280;6627;50.920;12.050;2022-09-09T02:36:53;98110.34;;;22.54;53.60
13124;BME280;6627;50.920;12.050;2022-09-09T02:39:22;98144.63;;;22.81;53.98
13124;BME280;6627;50.920;12.050;2022-09-09T02:41:49;98145.78;;;23.02;52.79
13124;BME280;6627;50.920;12.050;2022-09-09T02:44:19;98221.22;;;24.08;51.10
13124;BME280;6627;50.920;12.050;2022-09-09T02:47:07;98228.72;;;24.70;49.49
13124;BME280;6627;50.920;12.050;2022-09-09T02:49:54;98170.22;;;24.64;48.55
13124;BME280;6627;50.920;12.050;2022-09-09T02:52:34;98138.31;;;24.53;48.78
13124;BME280;6627;50.920;12.050;2022-09-09T02:55:17;98090.00;;;24.09;48.65
13124;BME280;6627;50.920;12.050;2022-09-09T02:57:52;98051.84;;;23.09;51.87
13124;BME280;6627;50.920;12.050;2022-09-09T03:00:27;98121.81;;;23.79;51.04
13124;BME280;6627;50.920;12.050;2022-09-09T03:02:56;98107.44;;;24.02;49.54
13124;BME280;6627;50.920;12.050;2022-09-09T03:05:24;98142.78;;;24.32;49.58
13124;BME280;6627;50.920;12.050;2022-09-09T03:07:54;98186.78;;;24.75;49.02
13124;BME280;6627;50.920;12.050;2022-09-09T03:10:21;98137.63;;;24.34;48.70
13124;BME280;6627;50.920;12.050;2022-09-09T03:12:49;98081.69;;;23.42;51.46
13124;BME280;6627;50.920;12.050;2022-09-09T03:15:17;98018.03;;;22.76;51.84
13124;BME280;6627;50.920;12.050;2022-09-09T03:17:46;98049.94;;;22.91;52.24
13124;BME280;6627;50.920;12.050;2022-09-09T03:20:18;98146.28;;;23.81;51.52
13124;BME280;6627;50.920;12.050;2022-09-09T03:22:46;98088.78;;;23.44;50.98
13124;BME280;6627;50.920;12.050;2022-09-09T03:25:15;98043.28;;;22.71;51.62
13124;BME280;6627;50.920;12.050;2022-09-09T03:27:42;98018.91;;;22.09;52.67
13124;BME280;6627;50.920;12.050;2022-09-09T03:30:11;98092.91;;;23.07;52.03
13124;BME280;6627;50.920;12.050;2022-09-09T03:32:38;98098.38;;;23.14;51.83
13124;BME280;6627;50.920;12.050;2022-09-09T03:35:08;98093.28;;;23.02;51.77
13124;BME280;6627;50.920;12.050;2022-09-09T03:37:36;98127.97;;;23.17;52.65
13124;BME280;6627;50.920;12.050;2022-09-09T03:40:06;98084.28;;;22.62;53.04
13124;BME280;6627;50.920;12.050;2022-09-09T03:42:35;98072.50;;;22.58;53.12
13124;BME280;6627;50.920;12.050;2022-09-09T03:45:10;98075.97;;;22.87;51.91
13124;BME280;6627;50.920;12.050;2022-09-09T03:47:38;98078.75;;;22.90;51.81
13124;BME280;6627;50.920;12.050;2022-09-09T03:50:09;98092.50;;;23.01;51.73
13124;BME280;6627;50.920;12.050;2022-09-09T03:52:38;98116.94;;;23.06;52.33
13124;BME280;6627;50.920;12.050;2022-09-09T03:55:08;98128.31;;;23.33;51.87
13124;BME280;6627;50.920;12.050;2022-09-09T03:57:36;98110.19;;;23.25;51.77
13124;BME280;6627;50.920;12.050;2022-09-09T04:00:08;98138.47;;;23.61;51.23
13124;BME280;6627;50.920;12.050;2022-09-09T04:02:55;98142.34;;;23.78;50.74
13124;BME280;6627;50.920;12.050;2022-09-09T04:05:25;98084.84;;;23.45;50.27
13124;BME280;6627;50.920;12.050;2022-09-09T04:07:53;98122.13;;;23.92;49.69
13124;BME280;6627;50.920;12.050;2022-09-09T04:10:20;98059.41;;;22.94;51.54
13124;BME280;6627;50.920;12.050;2022-09-09T04:12:49;98077.81;;;23.29;50.95
13124;BME280;6627;50.920;12.050;2022-09-09T04:15:17;98081.72;;;23.39;50.70
13124;BME280;6627;50.920;12.050;2022-09-09T04:17:46;98131.38;;;23.60;51.56
13124;BME280;6627;50.920;12.050;2022-09-09T04:20:14;98134.44;;;23.80;51.00
13124;BME280;6627;50.920;12.050;2022-09-09T04:22:43;98090.25;;;23.73;49.93
13124;BME280;6627;50.920;12.050;2022-09-09T04:25:11;98081.44;;;23.05;51.28
13124;BME280;6627;50.920;12.050;2022-09-09T04:27:38;98054.25;;;23.00;51.73
13124;BME280;6627;50.920;12.050;2022-09-09T04:30:09;98039.34;;;22.65;52.51
13124;BME280;6627;50.920;12.050;2022-09-09T04:32:37;98050.34;;;22.79;52.17
13124;BME280;6627;50.920;12.050;2022-09-09T04:35:08;98024.78;;;22.54;51.67
13124;BME280;6627;50.920;12.050;2022-09-09T04:37:37;98079.50;;;22.84;52.52
13124;BME280;6627;50.920;12.050;2022-09-09T04:40:09;98147.84;;;23.85;50.84
13124;BME280;6627;50.920;12.050;2022-09-09T04:42:39;98118.00;;;23.45;51.14
13124;BME280;6627;50.920;12.050;2022-09-09T04:45:24;98032.25;;;22.60;51.51
13124;BME280;6627;50.920;12.050;2022-09-09T04:47:55;98118.69;;;23.63;50.62
13124;BME280;6627;50.920;12.050;2022-09-09T04:50:43;98153.25;;;24.07;49.98
13124;BME280;6627;50.920;12.050;2022-09-09T04:53:14;98102.75;;;23.96;49.23
13124;BME280;6627;50.920;12.050;2022-09-09T04:55:46;98130.31;;;24.10;49.63
13124;BME280;6627;50.920;12.050;2022-09-09T04:58:30;98092.59;;;23.78;49.12
13124;BME280;6627;50.920;12.050;2022-09-09T05:01:06;98057.78;;;23.04;51.42
13124;BME280;6627;50.920;12.050;2022-09-09T05:03:34;98137.59;;;23.82;50.73
13124;BME280;6627;50.920;12.050;2022-09-09T05:06:07;98136.81;;;23.82;50.47
13124;BME280;6627;50.920;12.050;2022-09-09T05:08:36;98150.00;;;24.19;49.93
13124;BME280;6627;50.920;12.050;2022-09-09T05:11:14;98160.97;;;24.30;49.59
13124;BME280;6627;50.920;12.050;2022-09-09T05:13:41;98164.13;;;24.35;49.11
13124;BME280;6627;50.920;12.050;2022-09-09T05:16:09;98114.59;;;23.96;49.39
13124;BME280;6627;50.920;12.050;2022-09-09T05:18:46;98166.03;;;24.46;49.10
13124;BME280;6627;50.920;12.050;2022-09-09T05:21:25;98083.28;;;23.36;50.81
13124;BME280;6627;50.920;12.050;2022-09-09T05:24:13;98169.69;;;24.32;49.85
13124;BME280;6627;50.920;12.050;2022-09-09T05:26:51;98178.75;;;24.32;49.86
13124;BME280;6627;50.920;12.050;2022-09-09T05:29:38;98120.94;;;23.89;50.30
13124;BME280;6627;50.920;12.050;2022-09-09T05:32:07;98326.44;;;25.71;47.77
13124;BME280;6627;50.920;12.050;2022-09-09T05:34:36;98065.78;;;23.61;50.13
13124;BME280;6627;50.920;12.050;2022-09-09T05:37:05;98158.09;;;23.85;51.14
13124;BME280;6627;50.920;12.050;2022-09-09T05:39:38;98132.13;;;23.68;51.00
13124;BME280;6627;50.920;12.050;2022-09-09T05:42:16;98187.31;;;23.89;51.62
13124;BME280;6627;50.920;12.050;2022-09-09T05:44:44;98177.53;;;23.74;52.05
13124;BME280;6627;50.920;12.050;2022-09-09T05:47:31;98185.78;;;23.81;51.81
13124;BME280;6627;50.920;12.050;2022-09-09T05:49:58;98215.66;;;24.08;51.83
13124;BME280;6627;50.920;12.050;2022-09-09T05:52:25;98240.09;;;24.27;51.27
13124;BME280;6627;50.920;12.050;2022-09-09T05:54:53;98247.47;;;24.52;50.71
13124;BME280;6627;50.920;12.050;2022-09-09T05:57:41;98182.53;;;24.01;50.80
13124;BME280;6627;50.920;12.050;2022-09-09T06:00:28;98185.84;;;23.67;51.75
13124;BME280;6627;50.920;12.050;2022-09-09T06:03:03;98180.97;;;23.96;51.14
13124;BME280;6627;50.920;12.050;2022-09-09T06:05:58;98246.31;;;24.98;49.47
13124;BME280;6627;50.920;12.050;2022-09-09T06:08:45;98168.91;;;24.31;49.61
13124;BME280;6627;50.920;12.050;2022-09-09T06:11:32;98215.38;;;24.58;49.94
13124;BME280;6627;50.920;12.050;2022-09-09T06:14:09;98254.84;;;24.73;50.71
13124;BME280;6627;50.920;12.050;2022-09-09T06:16:56;98241.84;;;24.66;50.52
13124;BME280;6627;50.920;12.050;2022-09-09T06:19:43;98242.53;;;24.77;50.41
13124;BME280;6627;50.920;12.050;2022-09-09T06:22:29;98289.91;;;24.94;50.67
13124;BME280;6627;50.920;12.050;2022-09-09T06:24:58;98282.19;;;25.19;50.06
13124;BME280;6627;50.920;12.050;2022-09-09T06:27:35;98237.34;;;24.83;49.73
13124;BME280;6627;50.920;12.050;2022-09-09T06:30:05;98298.59;;;25.40;49.63
13124;BME280;6627;50.920;12.050;2022-09-09T06:32:34;98213.69;;;24.75;49.96
13124;BME280;6627;50.920;12.050;2022-09-09T06:35:05;98334.75;;;25.71;49.45
13124;BME280;6627;50.920;12.050;2022-09-09T06:37:32;98296.88;;;25.54;48.97
13124;BME280;6627;50.920;12.050;2022-09-09T06:40:02;98214.34;;;24.30;51.35
13124;BME280;6627;50.920;12.050;2022-09-09T06:42:30;98333.19;;;25.70;49.78
13124;BME280;6627;50.920;12.050;2022-09-09T06:45:18;98258.91;;;25.09;49.40
13124;BME280;6627;50.920;12.050;2022-09-09T06:48:05;98259.25;;;25.15;49.67
13124;BME280;6627;50.920;12.050;2022-09-09T06:51:01;98265.31;;;25.44;48.63
13124;BME280;6627;50.920;12.050;2022-09-09T06:53:52;98200.72;;;24.61;49.74
13124;BME280;6627;50.920;12.050;2022-09-09T06:56:41;98227.59;;;24.64;50.20
13124;BME280;6627;50.920;12.050;2022-09-09T06:59:28;98229.34;;;24.92;49.76
13124;BME280;6627;50.920;12.050;2022-09-09T07:01:58;98255.34;;;25.09;49.69
13124;BME280;6627;50.920;12.050;2022-09-09T07:04:25;98248.94;;;25.19;49.56
13124;BME280;6627;50.920;12.050;2022-09-09T07:06:52;98360.50;;;26.13;48.72
13124;BME280;6627;50.920;12.050;2022-09-09T07:09:39;98399.53;;;26.94;47.01
13124;BME280;6627;50.920;12.050;2022-09-09T07:12:09;98275.75;;;26.05;47.63
13124;BME280;6627;50.920;12.050;2022-09-09T07:14:55;98278.97;;;26.00;48.41
13124;BME280;6627;50.920;12.050;2022-09-09T07:17:27;98369.22;;;26.76;48.00
13124;BME280;6627;50.920;12.050;2022-09-09T07:20:15;98389.66;;;27.20;46.85
13124;BME280;6627;50.920;12.050;2022-09-09T07:22:44;98332.75;;;26.74;47.05
13124;BME280;6627;50.920;12.050;2022-09-09T07:25:12;98391.59;;;27.23;47.17
13124;BME280;6627;50.920;12.050;2022-09-09T07:27:41;98347.72;;;27.34;45.89
13124;BME280;6627;50.920;12.050;2022-09-09T07:30:09;98318.97;;;27.17;45.96
13124;BME280;6627;50.920;12.050;2022-09-09T07:32:40;98247.50;;;26.40;48.12
13124;BME280;6627;50.920;12.050;2022-09-09T07:35:12;98357.03;;;27.48;46.56
13124;BME280;6627;50.920;12.050;2022-09-09T07:37:40;98168.63;;;25.80;47.24
13124;BME280;6627;50.920;12.050;2022-09-09T07:40:12;98127.56;;;25.37;47.89
13124;BME280;6627;50.920;12.050;2022-09-09T07:42:58;98248.31;;;25.76;49.13
13124;BME280;6627;50.920;12.050;2022-09-09T07:45:27;98301.25;;;26.57;47.20
13124;BME280;6627;50.920;12.050;2022-09-09T07:47:57;98377.69;;;27.23;46.79
13124;BME280;6627;50.920;12.050;2022-09-09T07:50:31;98357.75;;;27.28;46.29
13124;BME280;6627;50.920;12.050;2022-09-09T07:52:58;98333.00;;;26.83;47.27
13124;BME280;6627;50.920;12.050;2022-09-09T07:55:26;98348.16;;;27.06;47.02
13124;BME280;6627;50.920;12.050;2022-09-09T07:57:55;98291.94;;;26.95;46.28
13124;BME280;6627;50.920;12.050;2022-09-09T08:00:24;98352.59;;;27.00;47.22
13124;BME280;6627;50.920;12.050;2022-09-09T08:02:53;98448.03;;;27.74;47.52
13124;BME280;6627;50.920;12.050;2022-09-09T08:05:23;98357.69;;;27.55;45.87
13124;BME280;6627;50.920;12.050;2022-09-09T08:08:10;98295.13;;;27.20;45.33
13124;BME280;6627;50.920;12.050;2022-09-09T08:10:39;98390.38;;;27.71;46.18
13124;BME280;6627;50.920;12.050;2022-09-09T08:13:12;98413.00;;;28.20;45.06
13124;BME280;6627;50.920;12.050;2022-09-09T08:15:40;98142.59;;;25.67;47.73
13124;BME280;6627;50.920;12.050;2022-09-09T08:18:09;98378.97;;;27.65;46.29
13124;BME280;6627;50.920;12.050;2022-09-09T08:20:38;98402.28;;;27.99;45.87
13124;BME280;6627;50.920;12.050;2022-09-09T08:23:06;98379.94;;;28.22;44.57
13124;BME280;6627;50.920;12.050;2022-09-09T08:25:41;98410.63;;;28.78;43.75
13124;BME280;6627;50.920;12.050;2022-09-09T08:28:09;98224.16;;;27.12;45.19
13124;BME280;6627;50.920;12.050;2022-09-09T08:30:41;98474.75;;;29.51;42.83
13124;BME280;6627;50.920;12.050;2022-09-09T08:33:09;98259.03;;;28.39;42.39
13124;BME280;6627;50.920;12.050;2022-09-09T08:35:38;98263.09;;;28.15;43.87
13124;BME280;6627;50.920;12.050;2022-09-09T08:38:06;98263.56;;;27.94;44.43
13124;BME280;6627;50.920;12.050;2022-09-09T08:40:43;98241.03;;;27.45;45.45
13124;BME280;6627;50.920;12.050;2022-09-09T08:43:21;98348.56;;;28.18;45.22
13124;BME280;6627;50.920;12.050;2022-09-09T08:46:09;98398.78;;;28.90;44.05
13124;BME280;6627;50.920;12.050;2022-09-09T08:48:53;98329.16;;;28.34;44.15
13124;BME280;6627;50.920;12.050;2022-09-09T08:51:45;98242.97;;;27.48;45.23
13124;BME280;6627;50.920;12.050;2022-09-09T08:54:14;98228.63;;;27.06;45.92
13124;BME280;6627;50.920;12.050;2022-09-09T08:56:51;98325.44;;;27.81;45.10
13124;BME280;6627;50.920;12.050;2022-09-09T08:59:20;98451.88;;;28.87;44.40
13124;BME280;6627;50.920;12.050;2022-09-09T09:02:00;98280.97;;;27.34;45.83
13124;BME280;6627;50.920;12.050;2022-09-09T09:04:58;98349.22;;;27.86;45.61
13124;BME280;6627;50.920;12.050;2022-09-09T09:07:53;98346.72;;;28.31;44.21
13124;BME280;6627;50.920;12.050;2022-09-09T09:10:40;98360.72;;;28.48;43.90
13124;BME280;6627;50.920;12.050;2022-09-09T09:13:17;98332.25;;;28.20;44.45
13124;BME280;6627;50.920;12.050;2022-09-09T09:15:54;98279.06;;;27.95;43.85
13124;BME280;6627;50.920;12.050;2022-09-09T09:18:23;98234.63;;;27.48;44.70
13124;BME280;6627;50.920;12.050;2022-09-09T09:21:03;98311.94;;;28.20;44.17
13124;BME280;6627;50.920;12.050;2022-09-09T09:23:42;98304.72;;;28.22;44.00
13124;BME280;6627;50.920;12.050;2022-09-09T09:26:13;98258.06;;;27.90;43.99
13124;BME280;6627;50.920;12.050;2022-09-09T09:28:42;98309.16;;;28.39;43.54
13124;BME280;6627;50.920;12.050;2022-09-09T09:31:14;98364.97;;;28.72;43.05
13124;BME280;6627;50.920;12.050;2022-09-09T09:33:48;98259.91;;;28.16;43.27
13124;BME280;6627;50.920;12.050;2022-09-09T09:36:18;98351.06;;;28.88;42.82
13124;BME280;6627;50.920;12.050;2022-09-09T09:38:57;98256.56;;;28.41;42.90
13124;BME280;6627;50.920;12.050;2022-09-09T09:41:34;98325.31;;;29.01;42.26
13124;BME280;6627;50.920;12.050;2022-09-09T09:44:03;98302.81;;;29.08;41.62
13124;BME280;6627;50.920;12.050;2022-09-09T09:46:32;98311.28;;;29.21;41.40
13124;BME280;6627;50.920;12.050;2022-09-09T09:49:01;98281.97;;;29.12;41.42
13124;BME280;6627;50.920;12.050;2022-09-09T09:51:31;98171.44;;;28.40;41.81
13124;BME280;6627;50.920;12.050;2022-09-09T09:54:09;98274.22;;;29.36;41.06
13124;BME280;6627;50.920;12.050;2022-09-09T09:56:43;98181.94;;;28.33;42.18
13124;BME280;6627;50.920;12.050;2022-09-09T09:59:21;98303.16;;;29.59;40.60
13124;BME280;6627;50.920;12.050;2022-09-09T10:02:16;98265.16;;;29.16;41.21
13124;BME280;6627;50.920;12.050;2022-09-09T10:04:47;98278.31;;;29.32;41.11
13124;BME280;6627;50.920;12.050;2022-09-09T10:07:21;98263.44;;;29.51;40.25
13124;BME280;6627;50.920;12.050;2022-09-09T10:09:53;98265.78;;;29.53;40.92
13124;BME280;6627;50.920;12.050;2022-09-09T10:12:38;98137.75;;;28.51;41.47
13124;BME280;6627;50.920;12.050;2022-09-09T10:15:28;98151.94;;;28.57;41.52
13124;BME280;6627;50.920;12.050;2022-09-09T10:18:08;98183.66;;;28.96;41.02
13124;BME280;6627;50.920;12.050;2022-09-09T10:20:49;98088.53;;;27.96;41.59
13124;BME280;6627;50.920;12.050;2022-09-09T10:23:34;98160.28;;;28.40;41.56
13124;BME280;6627;50.920;12.050;2022-09-09T10:26:28;98169.84;;;28.72;40.86
13124;BME280;6627;50.920;12.050;2022-09-09T10:32:30;98147.59;;;28.39;41.49
13124;BME280;6627;50.920;12.050;2022-09-09T10:35:09;98314.78;;;30.15;39.32
13124;BME280;6627;50.920;12.050;2022-09-09T10:37:47;98417.78;;;31.10;38.88
13124;BME280;6627;50.920;12.050;2022-09-09T10:40:27;98182.06;;;29.53;39.72
13124;BME280;6627;50.920;12.050;2022-09-09T10:43:07;98228.13;;;29.61;40.45
13124;BME280;6627;50.920;12.050;2022-09-09T10:45:55;98138.66;;;28.94;40.06
13124;BME280;6627;50.920;12.050;2022-09-09T10:48:35;98196.47;;;29.51;40.15
13124;BME280;6627;50.920;12.050;2022-09-09T10:51:19;98220.16;;;29.88;39.14
13124;BME280;6627;50.920;12.050;2022-09-09T10:54:09;98292.22;;;30.35;39.13
13124;BME280;6627;50.920;12.050;2022-09-09T10:56:40;98228.94;;;30.16;38.60
13124;BME280;6627;50.920;12.050;2022-09-09T10:59:16;98216.22;;;30.15;38.42
13124;BME280;6627;50.920;12.050;2022-09-09T11:01:50;98125.19;;;29.63;38.65
13124;BME280;6627;50.920;12.050;2022-09-09T11:04:24;98180.84;;;29.96;38.82
13124;BME280;6627;50.920;12.050;2022-09-09T11:06:55;98180.31;;;30.13;37.49
13124;BME280;6627;50.920;12.050;2022-09-09T11:09:38;98216.00;;;30.48;38.15
13124;BME280;6627;50.920;12.050;2022-09-09T11:12:12;98121.22;;;29.89;38.14
13124;BME280;6627;50.920;12.050;2022-09-09T11:14:47;98051.81;;;29.50;38.62
13124;BME280;6627;50.920;12.050;2022-09-09T11:17:21;98129.13;;;29.91;38.45
13124;BME280;6627;50.920;12.050;2022-09-09T11:19:54;98091.91;;;29.56;38.82
13124;BME280;6627;50.920;12.050;2022-09-09T11:22:27;98009.34;;;29.16;38.04
13124;BME280;6627;50.920;12.050;2022-09-09T11:24:59;98083.38;;;29.47;38.83
13124;BME280;6627;50.920;12.050;2022-09-09T11:27:31;98000.41;;;28.96;38.31
13124;BME280;6627;50.920;12.050;2022-09-09T11:30:20;98077.41;;;29.61;38.34
13124;BME280;6627;50.920;12.050;2022-09-09T11:33:14;98109.59;;;30.04;36.94
13124;BME280;6627;50.920;12.050;2022-09-09T11:36:02;98120.28;;;30.44;36.65
13124;BME280;6627;50.920;12.050;2022-09-09T11:38:38;98153.91;;;30.78;36.35
13124;BME280;6627;50.920;12.050;2022-09-09T11:41:11;98083.88;;;30.34;36.80
13124;BME280;6627;50.920;12.050;2022-09-09T11:43:42;98045.66;;;30.31;36.56
13124;BME280;6627;50.920;12.050;2022-09-09T11:46:16;98148.81;;;31.21;35.79
13124;BME280;6627;50.920;12.050;2022-09-09T11:49:00;98012.94;;;30.19;36.92
13124;BME280;6627;50.920;12.050;2022-09-09T11:51:33;98135.47;;;31.25;35.65
13124;BME280;6627;50.920;12.050;2022-09-09T11:54:04;97977.03;;;30.30;35.77
13124;BME280;6627;50.920;12.050;2022-09-09T11:56:51;97939.91;;;29.95;36.41
13124;BME280;6627;50.920;12.050;2022-09-09T11:59:22;98064.09;;;30.76;36.59
13124;BME280;6627;50.920;12.050;2022-09-09T12:01:55;98097.56;;;31.24;35.49
13124;BME280;6627;50.920;12.050;2022-09-09T12:04:32;98060.16;;;30.86;35.76
13124;BME280;6627;50.920;12.050;2022-09-09T12:07:03;98087.47;;;31.26;35.40
13124;BME280;6627;50.920;12.050;2022-09-09T12:09:45;98086.22;;;31.27;35.09
13124;BME280;6627;50.920;12.050;2022-09-09T12:12:26;98023.91;;;31.05;34.57
13124;BME280;6627;50.920;12.050;2022-09-09T12:17:47;97940.41;;;30.94;33.74
13124;BME280;6627;50.920;12.050;2022-09-09T12:20:18;97944.19;;;31.31;33.45
13124;BME280;6627;50.920;12.050;2022-09-09T12:23:06;97910.91;;;31.33;33.43
13124;BME280;6627;50.920;12.050;2022-09-09T12:26:20;97965.78;;;31.71;33.62
13124;BME280;6627;50.920;12.050;2022-09-09T12:28:58;97964.97;;;32.20;32.54
13124;BME280;6627;50.920;12.050;2022-09-09T12:31:34;98025.59;;;32.45;33.39
13124;BME280;6627;50.920;12.050;2022-09-09T12:34:11;97784.69;;;31.31;32.13
13124;BME280;6627;50.920;12.050;2022-09-09T12:36:42;97676.16;;;30.58;32.82
13124;BME280;6627;50.920;12.050;2022-09-09T12:39:18;97842.56;;;31.62;32.56
13124;BME280;6627;50.920;12.050;2022-09-09T12:41:53;97803.66;;;31.36;32.54
13124;BME280;6627;50.920;12.050;2022-09-09T12:44:25;97828.56;;;31.53;32.70
13124;BME280;6627;50.920;12.050;2022-09-09T12:46:59;97768.31;;;31.21;32.87
13124;BME280;6627;50.920;12.050;2022-09-09T12:49:34;97911.72;;;32.29;32.10
13124;BME280;6627;50.920;12.050;2022-09-09T12:52:08;97901.13;;;32.33;32.28
13124;BME280;6627;50.920;12.050;2022-09-09T12:54:45;97918.34;;;32.96;30.83
13124;BME280;6627;50.920;12.050;2022-09-09T12:57:14;97833.53;;;32.59;30.79
13124;BME280;6627;50.920;12.050;2022-09-09T12:59:44;97699.47;;;31.69;31.38
13124;BME280;6627;50.920;12.050;2022-09-09T13:02:19;97654.41;;;31.21;31.78
13124;BME280;6627;50.920;12.050;2022-09-09T13:04:50;97743.63;;;31.56;32.10
13124;BME280;6627;50.920;12.050;2022-09-09T13:07:20;97704.16;;;31.35;31.78
13124;BME280;6627;50.920;12.050;2022-09-09T13:10:03;97664.00;;;31.20;31.15
13124;BME280;6627;50.920;12.050;2022-09-09T13:12:31;97566.06;;;30.28;32.24
13124;BME280;6627;50.920;12.050;2022-09-09T13:14:58;97747.69;;;31.64;30.87
13124;BME280;6627;50.920;12.050;2022-09-09T13:17:28;97655.91;;;30.85;31.72
13124;BME280;6627;50.920;12.050;2022-09-09T13:20:04;97759.81;;;31.52;31.67
13124;BME280;6627;50.920;12.050;2022-09-09T13:22:35;97806.34;;;31.86;31.66
13124;BME280;6627;50.920;12.050;2022-09-09T13:25:17;97667.72;;;30.99;31.31
13124;BME280;6627;50.920;12.050;2022-09-09T13:27:53;97618.81;;;30.26;32.36
13124;BME280;6627;50.920;12.050;2022-09-09T13:30:23;97714.94;;;30.78;31.93
13124;BME280;6627;50.920;12.050;2022-09-09T13:33:01;97703.75;;;30.78;32.29
13124;BME280;6627;50.920;12.050;2022-09-09T13:35:31;97796.53;;;31.54;31.28
13124;BME280;6627;50.920;12.050;2022-09-09T13:38:06;97739.25;;;31.09;31.51
13124;BME280;6627;50.920;12.050;2022-09-09T13:40:34;97735.03;;;31.04;32.20
13124;BME280;6627;50.920;12.050;2022-09-09T13:43:04;97688.56;;;30.48;33.14
13124;BME280;6627;50.920;12.050;2022-09-09T13:45:32;97798.41;;;31.07;33.07
13124;BME280;6627;50.920;12.050;2022-09-09T13:48:17;97800.00;;;30.68;33.67
13124;BME280;6627;50.920;12.050;2022-09-09T13:50:56;97912.81;;;31.46;33.44